Data for 03/22/2006

Time Sea-Level Adjusted Pressure Absolute Pressure Temperature Relative Humidity Dew Point   
(mb) (inHg) (mb) (inHg) (C) (F) (%) (C) (F)
00:05 1016 30 846 24.98 -3.4 25.9 82 -6 21.2
00:10 1016 30 846 24.98 -3.5 25.7 83 -6 21.1
00:15 1016 30 846 24.98 -3.5 25.7 83 -6 21.1
00:20 1016 30 846 24.98 -3.6 25.6 83 -6 21.1
00:25 1017 30.03 846 24.98 -3.6 25.5 83 -6.1 21.1
00:30 1017 30.03 846 24.98 -3.6 25.4 84 -6 21.2
00:35 1017 30.03 846 24.98 -3.7 25.3 84 -6.1 21
00:40 1017 30.03 846 24.98 -3.7 25.3 84 -6 21.1
00:45 1017 30.03 846 24.98 -3.8 25.2 84 -6.1 21
00:50 1017 30.03 846 24.98 -3.8 25.2 84 -6.1 21
00:55 1017 30.03 846 24.98 -3.8 25.1 84 -6.1 21
01:00 1017 30.03 846 24.98 -3.9 25 85 -6.1 21
01:05 1017 30.03 847 25.01 -3.9 24.9 85 -6.2 20.9
01:10 1017 30.03 847 25.01 -4.1 24.7 85 -6.3 20.7
01:15 1017 30.03 847 25.01 -4.1 24.6 85 -6.3 20.6
01:20 1017 30.03 847 25.01 -4.1 24.7 84 -6.4 20.6
01:25 1018 30.06 847 25.01 -4.1 24.7 84 -6.4 20.5
01:30 1018 30.06 847 25.01 -4.1 24.7 84 -6.4 20.5
01:35 1018 30.06 847 25.01 -4 24.8 84 -6.3 20.6
01:40 1018 30.06 847 25.01 -4.1 24.7 84 -6.4 20.5
01:45 1018 30.06 847 25.01 -4 24.8 84 -6.3 20.7
01:50 1018 30.06 847 25.01 -4 24.8 84 -6.3 20.6
01:55 1018 30.06 847 25.01 -4 24.8 84 -6.3 20.7
02:00 1018 30.06 847 25.01 -4 24.8 84 -6.3 20.7
02:05 1018 30.06 847 25.01 -4 24.7 85 -6.3 20.7
02:10 1018 30.06 847 25.01 -3.9 24.9 84 -6.2 20.8
02:15 1018 30.06 847 25.01 -3.9 24.9 84 -6.2 20.8
02:20 1018 30.06 847 25.01 -3.9 25 84 -6.3 20.7
02:25 1018 30.06 847 25.01 -3.9 25 84 -6.2 20.8
02:30 1018 30.06 847 25.01 -3.9 25.1 84 -6.2 20.8
02:35 1018 30.06 847 25.01 -3.9 25 84 -6.3 20.7
02:40 1018 30.06 847 25.01 -3.9 25 84 -6.2 20.8
02:45 1018 30.06 847 25.01 -3.9 24.9 84 -6.3 20.6
02:50 1018 30.06 847 25.01 -4 24.8 84 -6.2 20.8
02:55 1018 30.06 847 25.01 -4 24.8 85 -6.3 20.7
03:00 1018 30.06 847 25.01 -4 24.8 85 -6.2 20.8
03:05 1018 30.06 847 25.01 -4 24.9 85 -6.2 20.9
03:10 1018 30.06 848 25.04 -3.9 24.9 85 -6.1 21
03:15 1018 30.06 848 25.04 -3.8 25.1 84 -6.1 21
03:20 1018 30.06 848 25.04 -3.8 25.2 84 -6.1 21.1
03:25 1018 30.06 848 25.04 -3.7 25.4 83 -6.1 21
03:30 1018 30.06 848 25.04 -3.6 25.5 83 -6.1 21.1
03:35 1019 30.09 848 25.04 -3.7 25.4 84 -6 21.2
03:40 1019 30.09 848 25.04 -3.7 25.4 84 -6 21.3
03:45 1019 30.09 848 25.04 -3.6 25.5 84 -6 21.1
03:50 1019 30.09 848 25.04 -3.6 25.5 84 -5.9 21.3
03:55 1019 30.09 848 25.04 -3.6 25.5 84 -5.9 21.4
04:00 1019 30.09 848 25.04 -3.6 25.6 84 -5.9 21.4
04:05 1019 30.09 848 25.04 -3.5 25.7 84 -5.9 21.4
04:10 1019 30.09 848 25.04 -3.5 25.7 84 -5.8 21.6
04:15 1019 30.09 848 25.04 -3.5 25.6 85 -5.8 21.6
04:20 1019 30.09 848 25.04 -3.5 25.6 85 -5.8 21.6
04:25 1019 30.09 848 25.04 -3.4 25.8 85 -5.7 21.8
04:30 1019 30.09 848 25.04 -3.4 25.8 84 -5.7 21.7
04:35 1019 30.09 848 25.04 -3.5 25.7 84 -5.7 21.7
04:40 1019 30.09 849 25.07 -3.5 25.8 85 -5.7 21.7
04:45 1019 30.09 849 25.07 -3.5 25.8 85 -5.7 21.8
04:50 1019 30.09 849 25.07 -3.5 25.8 85 -5.6 21.9
04:55 1020 30.12 849 25.07 -3.4 25.9 86 -5.5 22.2
05:00 1020 30.12 849 25.07 -3.3 26 86 -5.4 22.3
05:05 1020 30.12 849 25.07 -3.2 26.2 86 -5.3 22.5
05:10 1020 30.12 849 25.07 -3.2 26.3 86 -5.3 22.5
05:15 1020 30.12 849 25.07 -3.2 26.2 87 -5.1 22.9
05:20 1020 30.12 849 25.07 -3.2 26.2 87 -5.1 22.9
05:25 1020 30.12 849 25.07 -3.2 26.2 88 -5 23.1
05:30 1020 30.12 849 25.07 -3.2 26.2 88 -4.9 23.2
05:35 1020 30.12 849 25.07 -3.4 26 89 -4.9 23.2
05:40 1020 30.12 849 25.07 -3.4 25.9 89 -4.9 23.2
05:45 1020 30.12 849 25.07 -3.4 25.9 90 -4.7 23.5
05:50 1020 30.12 849 25.07 -3.3 26 90 -4.7 23.6
05:55 1020 30.12 849 25.07 -3.3 26 91 -4.6 23.6
06:00 1020 30.12 849 25.07 -3.3 26.1 91 -4.6 23.7
06:05 1020 30.12 849 25.07 -3.3 26 90 -4.7 23.6
06:10 1020 30.12 850 25.1 -3.3 26 90 -4.7 23.5
06:15 1020 30.12 850 25.1 -3.3 26.1 90 -4.7 23.6
06:20 1020 30.12 850 25.1 -3.2 26.2 90 -4.7 23.6
06:25 1020 30.12 850 25.1 -3.2 26.3 90 -4.6 23.8
06:30 1020 30.12 850 25.1 -3.1 26.3 90 -4.5 23.8
06:35 1021 30.15 850 25.1 -3.1 26.4 90 -4.5 24
06:40 1021 30.15 850 25.1 -3.1 26.5 91 -4.4 24.1
06:45 1021 30.15 850 25.1 -3 26.6 91 -4.3 24.2
06:50 1021 30.15 850 25.1 -3 26.6 91 -4.3 24.3
06:55 1021 30.15 850 25.1 -2.8 26.9 91 -4.1 24.5
07:00 1021 30.15 850 25.1 -2.8 27 91 -4.1 24.7
07:05 1021 30.15 850 25.1 -2.7 27.1 91 -4 24.8
07:10 1021 30.15 850 25.1 -2.6 27.3 91 -3.9 25
07:15 1021 30.15 850 25.1 -2.5 27.6 90 -3.8 25.1
07:20 1021 30.15 850 25.1 -2.4 27.7 90 -3.8 25.2
07:25 1021 30.15 850 25.1 -2.3 27.8 91 -3.6 25.5
07:30 1021 30.15 850 25.1 -2.3 27.9 92 -3.4 25.8
07:35 1021 30.15 850 25.1 -2.2 28.1 92 -3.3 26
07:40 1021 30.15 850 25.1 -2 28.3 92 -3.1 26.3
07:45 1021 30.15 851 25.13 -1.8 28.8 91 -3 26.5
07:50 1021 30.15 851 25.13 -1.7 29 90 -3.1 26.5
07:55 1021 30.15 851 25.13 -1.6 29.1 90 -3.1 26.5
08:00 1021 30.15 851 25.13 -1.7 29 90 -3.1 26.5
08:05 1022 30.18 851 25.13 -1.8 28.7 92 -3 26.6
08:10 1022 30.18 851 25.13 -1.7 28.9 91 -2.9 26.7
08:15 1022 30.18 851 25.13 -1.7 29 91 -2.9 26.8
08:20 1022 30.18 851 25.13 -1.6 29.1 91 -2.9 26.8
08:25 1022 30.18 851 25.13 -1.5 29.3 91 -2.8 27
08:30 1022 30.18 851 25.13 -1.3 29.6 89 -2.9 26.9
08:35 1022 30.18 851 25.13 -1.2 29.8 89 -2.8 27
08:40 1022 30.18 851 25.13 -0.9 30.4 87 -2.8 26.9
08:45 1022 30.18 851 25.13 -0.7 30.8 86 -2.7 27.1
08:50 1022 30.18 851 25.13 -0.5 31.2 85 -2.6 27.2
08:55 1022 30.18 851 25.13 -0.3 31.5 84 -2.8 27
09:00 1022 30.18 851 25.13 -0.1 31.9 83 -2.7 27.2
09:05 1022 30.18 851 25.13 0.3 32.5 82 -2.4 27.6
09:10 1022 30.18 851 25.13 0.6 33 80 -2.5 27.5
09:15 1022 30.18 851 25.13 0.5 32.9 79 -2.7 27.1
09:20 1022 30.18 851 25.13 0.4 32.7 80 -2.7 27.2
09:25 1022 30.18 852 25.16 0.7 33.2 79 -2.6 27.3
09:30 1022 30.18 852 25.16 1.2 34.2 76 -2.5 27.4
09:35 1022 30.18 852 25.16 1.7 35 75 -2.3 27.8
09:40 1022 30.18 852 25.16 1.7 35.1 74 -2.5 27.5
09:45 1022 30.18 852 25.16 1.3 34.4 76 -2.4 27.7
09:50 1023 30.21 852 25.16 1.5 34.7 77 -2 28.4
09:55 1023 30.21 852 25.16 2 35.6 77 -1.7 29
10:00 1023 30.21 852 25.16 2.3 36.1 74 -1.8 28.7
10:05 1023 30.21 852 25.16 2.4 36.4 72 -2.2 28
10:10 1023 30.21 852 25.16 2.3 36.1 72 -2.3 27.8
10:15 1023 30.21 852 25.16 2.6 36.7 71 -2.1 28.2
10:20 1023 30.21 852 25.16 2.4 36.4 71 -2.2 28
10:25 1023 30.21 852 25.16 2.5 36.6 71 -2.1 28.2
10:30 1023 30.21 852 25.16 3.1 37.6 72 -1.5 29.3
10:35 1023 30.21 852 25.16 3.5 38.2 69 -1.7 29
10:40 1023 30.21 852 25.16 4 39.1 71 -0.8 30.5
10:45 1023 30.21 852 25.16 3.8 38.9 73 -0.6 30.9
10:50 1023 30.21 852 25.16 4 39.1 73 -0.4 31.4
10:55 1023 30.21 852 25.16 4.3 39.7 68 -1.2 29.9
11:00 1023 30.21 852 25.16 3.9 39 71 -0.9 30.5
11:05 1023 30.21 852 25.16 4.7 40.4 65 -1.3 29.6
11:10 1023 30.21 852 25.16 5.1 41.2 64 -1 30.2
11:15 1023 30.21 852 25.16 5 41 67 -0.7 30.8
11:20 1023 30.21 852 25.16 5.5 41.9 64 -0.7 30.8
11:25 1023 30.21 852 25.16 5.6 42 62 -1.1 30
11:30 1023 30.21 852 25.16 5.4 41.7 61 -1.5 29.4
11:35 1023 30.21 852 25.16 5.6 42.2 63 -0.9 30.3
11:40 1023 30.21 852 25.16 5.4 41.8 60 -1.7 28.9
11:45 1023 30.21 852 25.16 6.2 43.2 57 -1.6 29.2
11:50 1023 30.21 852 25.16 6.6 43.9 56 -1.4 29.4
11:55 1023 30.21 852 25.16 6.2 43.2 56 -1.9 28.7
12:00 1023 30.21 852 25.16 6.5 43.7 55 -1.8 28.8
12:05 1023 30.21 852 25.16 7.1 44.8 54 -1.4 29.4
12:10 1023 30.21 852 25.16 7.1 44.7 52 -2.1 28.2
12:15 1023 30.21 852 25.16 6.8 44.2 54 -1.9 28.5
12:20 1023 30.21 852 25.16 6.7 44.1 53 -2.1 28.3
12:25 1023 30.21 852 25.16 6.6 43.8 54 -2.1 28.3
12:30 1023 30.21 852 25.16 6.1 43 50 -3.5 25.7
12:35 1023 30.21 852 25.16 7 44.6 51 -2.5 27.5
12:40 1023 30.21 852 25.16 7.5 45.4 49 -2.7 27.2
12:45 1023 30.21 852 25.16 7.5 45.4 48 -2.7 27.1
12:50 1023 30.21 852 25.16 6.6 43.9 50 -3.1 26.5
12:55 1023 30.21 852 25.16 7.3 45.1 47 -3.2 26.2
13:00 1023 30.21 852 25.16 7.3 45.1 50 -2.5 27.4
13:05 1023 30.21 852 25.16 7.2 44.9 50 -2.5 27.5
13:10 1023 30.21 852 25.16 7.5 45.4 49 -2.4 27.6
13:15 1023 30.21 852 25.16 6.9 44.4 49 -3 26.7
13:20 1023 30.21 852 25.16 7.2 44.9 47 -3.4 25.8
13:25 1023 30.21 852 25.16 7.6 45.6 44 -4 24.9
13:30 1023 30.21 852 25.16 7.9 46.2 43 -4 24.8
13:35 1023 30.21 852 25.16 8.4 47.2 41 -4 24.7
13:40 1023 30.21 852 25.16 8.6 47.5 41 -3.8 25.2
13:45 1023 30.21 852 25.16 8.8 47.8 40 -4 24.8
13:50 1023 30.21 852 25.16 8.6 47.4 40 -4.1 24.6
13:55 1023 30.21 852 25.16 8.6 47.5 41 -3.8 25.2
14:00 1023 30.21 853 25.19 8.6 47.5 40 -4.2 24.4
14:05 1023 30.21 853 25.19 8.3 46.9 37 -5.5 22.2
14:10 1023 30.21 853 25.19 7.8 46.1 39 -5.2 22.6
14:15 1023 30.21 853 25.19 8.3 46.9 39 -5 23
14:20 1023 30.21 853 25.19 7.8 46.1 41 -4.6 23.7
14:25 1023 30.21 853 25.19 7.8 46 39 -5.2 22.7
14:30 1023 30.21 853 25.19 8.2 46.7 38 -5.3 22.5
14:35 1023 30.21 853 25.19 7.6 45.7 38 -5.7 21.7
14:40 1023 30.21 853 25.19 7.8 46 38 -5.6 21.9
14:45 1023 30.21 853 25.19 8.1 46.5 37 -5.9 21.3
14:50 1023 30.21 853 25.19 8.2 46.7 35 -6.2 20.8
14:55 1023 30.21 853 25.19 8.2 46.8 33 -7.1 19.2
15:00 1023 30.21 853 25.19 8.4 47.1 35 -6.2 20.9
15:05 1023 30.21 853 25.19 8.5 47.3 37 -5.3 22.5
15:10 1023 30.21 853 25.19 8.5 47.3 38 -4.9 23.2
15:15 1023 30.21 853 25.19 8.5 47.4 35 -5.9 21.4
15:20 1023 30.21 853 25.19 8 46.4 37 -6 21.3
15:25 1023 30.21 853 25.19 8.2 46.8 36 -6.1 21
15:30 1023 30.21 853 25.19 8.2 46.7 35 -6.3 20.7
15:35 1023 30.21 853 25.19 8.2 46.7 36 -5.8 21.5
15:40 1023 30.21 853 25.19 8.3 46.9 40 -4.4 24
15:45 1023 30.21 853 25.19 7.5 45.4 35 -7.2 19.1
15:50 1023 30.21 853 25.19 8.2 46.7 33 -7 19.4
15:55 1023 30.21 853 25.19 8.6 47.4 32 -7.1 19.2
16:00 1023 30.21 853 25.19 8.3 46.9 31 -7.7 18.2
16:05 1023 30.21 853 25.19 8 46.3 34 -6.9 19.5
16:10 1023 30.21 853 25.19 7.3 45.2 35 -7 19.4
16:15 1023 30.21 853 25.19 7.7 45.8 34 -7 19.4
16:20 1023 30.21 853 25.19 8 46.3 34 -7 19.4
16:25 1024 30.24 853 25.19 8.1 46.5 34 -6.7 20
16:30 1024 30.24 853 25.19 8.3 46.9 35 -6.4 20.4
16:35 1024 30.24 853 25.19 8.2 46.8 35 -6.4 20.4
16:40 1024 30.24 853 25.19 8.3 46.9 36 -6 21.1
16:45 1024 30.24 853 25.19 8.4 47.2 35 -6 21.2
16:50 1024 30.24 853 25.19 8.3 46.9 34 -6.5 20.3
16:55 1024 30.24 853 25.19 7.7 45.9 39 -5.4 22.3
17:00 1024 30.24 853 25.19 6.7 44.1 41 -5.6 21.8
17:05 1024 30.24 853 25.19 6.8 44.2 39 -6.2 20.8
17:10 1024 30.24 853 25.19 7.2 44.9 40 -5.6 21.9
17:15 1024 30.24 853 25.19 7 44.6 41 -5.2 22.6
17:20 1024 30.24 853 25.19 6.4 43.5 42 -5.6 21.9
17:25 1024 30.24 853 25.19 6.2 43.2 42 -5.8 21.5
17:30 1024 30.24 853 25.19 6.1 43 41 -6.2 20.8
17:35 1024 30.24 853 25.19 6.2 43.1 41 -6.2 20.8
17:40 1024 30.24 853 25.19 6.1 43 42 -5.8 21.5
17:45 1024 30.24 853 25.19 6.1 43 41 -6.2 20.9
17:50 1024 30.24 853 25.19 6.1 42.9 41 -6.1 20.9
17:55 1024 30.24 853 25.19 6 42.8 41 -6.3 20.7
18:00 1024 30.24 853 25.19 5.7 42.2 43 -5.9 21.4
18:05 1024 30.24 853 25.19 5.5 42 44 -5.8 21.5
18:10 1024 30.24 853 25.19 5.2 41.4 43 -6.3 20.6
18:15 1024 30.24 853 25.19 5.1 41.2 43 -6.3 20.6
18:20 1024 30.24 853 25.19 4.9 40.8 44 -6.4 20.4
18:25 1024 30.24 853 25.19 4.7 40.4 45 -6.3 20.6
18:30 1024 30.24 853 25.19 4.6 40.2 45 -6.3 20.7
18:35 1024 30.24 853 25.19 4.6 40.2 45 -6.2 20.8
18:40 1024 30.24 853 25.19 4.7 40.4 48 -5.6 22
18:45 1024 30.24 853 25.19 4.2 39.6 50 -5.4 22.2
18:50 1024 30.24 853 25.19 4 39.2 52 -5.1 22.9
18:55 1024 30.24 853 25.19 3.6 38.4 56 -4.4 24.1
19:00 1024 30.24 853 25.19 3 37.3 59 -4.4 24.1
19:05 1024 30.24 853 25.19 2.6 36.7 60 -4.3 24.2
19:10 1024 30.24 853 25.19 2.3 36.2 61 -4.3 24.2
19:15 1024 30.24 853 25.19 2 35.6 63 -4.3 24.3
19:20 1024 30.24 853 25.19 1.7 35.1 64 -4.3 24.3
19:25 1024 30.24 853 25.19 1.4 34.6 66 -4.2 24.4
19:30 1024 30.24 853 25.19 1.2 34.2 67 -4.3 24.2
19:35 1024 30.24 853 25.19 1 33.8 67 -4.4 24.2
19:40 1024 30.24 854 25.22 0.9 33.7 67 -4.5 23.9
19:45 1024 30.24 854 25.22 0.9 33.6 67 -4.5 23.8
19:50 1024 30.24 854 25.22 0.8 33.5 67 -4.6 23.7
19:55 1025 30.27 854 25.22 0.8 33.4 66 -4.8 23.4
20:00 1025 30.27 854 25.22 0.6 33.1 67 -4.8 23.4
20:05 1025 30.27 854 25.22 0.6 33 67 -4.8 23.4
20:10 1025 30.27 854 25.22 0.8 33.4 66 -4.8 23.3
20:15 1025 30.27 854 25.22 1 33.8 66 -4.7 23.6
20:20 1025 30.27 854 25.22 1 33.7 67 -4.6 23.8
20:25 1025 30.27 854 25.22 0.9 33.6 67 -4.6 23.7
20:30 1025 30.27 854 25.22 0.8 33.4 67 -4.6 23.7
20:35 1025 30.27 854 25.22 0.7 33.3 67 -4.7 23.5
20:40 1025 30.27 854 25.22 0.7 33.2 67 -4.7 23.6
20:45 1025 30.27 854 25.22 0.6 33.1 68 -4.7 23.6
20:50 1025 30.27 854 25.22 0.5 32.9 68 -4.7 23.5
20:55 1025 30.27 854 25.22 0.5 32.9 68 -4.8 23.3
21:00 1025 30.27 854 25.22 0.6 33.2 67 -4.9 23.2
21:05 1025 30.27 854 25.22 0.5 33 68 -4.7 23.6
21:10 1025 30.27 854 25.22 0.3 32.6 69 -4.7 23.5
21:15 1025 30.27 855 25.25 0.1 32.2 70 -4.7 23.5
21:20 1025 30.27 855 25.25 -0 31.9 71 -4.7 23.6
21:25 1025 30.27 855 25.25 -0.1 31.7 72 -4.6 23.6
21:30 1025 30.27 855 25.25 -0 32 74 -4.2 24.5
21:35 1025 30.27 855 25.25 0.2 32.4 76 -3.5 25.7
21:40 1025 30.27 855 25.25 0.5 32.9 76 -3.2 26.2
21:45 1025 30.27 855 25.25 0.7 33.2 76 -3.1 26.5
21:50 1025 30.27 855 25.25 0.3 32.6 75 -3.6 25.5
21:55 1025 30.27 855 25.25 -0.2 31.7 75 -4 24.8
22:00 1025 30.27 855 25.25 -0.5 31.2 77 -4.1 24.6
22:05 1025 30.27 855 25.25 -0.5 31.2 78 -3.9 25
22:10 1025 30.27 855 25.25 -0.4 31.3 79 -3.7 25.4
22:15 1025 30.27 855 25.25 -0.1 31.8 78 -3.4 25.8
22:20 1025 30.27 855 25.25 0.1 32.2 78 -3.3 26.1
22:25 1025 30.27 855 25.25 0.1 32.2 78 -3.3 26.1
22:30 1026 30.3 855 25.25 0.1 32.2 78 -3.3 26.1
22:35 1026 30.3 855 25.25 -0.3 31.5 78 -3.6 25.5
22:40 1026 30.3 855 25.25 -0.3 31.5 79 -3.5 25.6
22:45 1026 30.3 855 25.25 -0.3 31.4 78 -3.8 25.2
22:50 1026 30.3 855 25.25 -0.6 30.9 78 -4 24.9
22:55 1026 30.3 855 25.25 -0.4 31.2 79 -3.7 25.3
23:00 1026 30.3 855 25.25 -0.4 31.3 79 -3.7 25.4
23:05 1026 30.3 855 25.25 -0.4 31.2 79 -3.6 25.4
23:10 1026 30.3 855 25.25 -0.5 31 79 -3.7 25.3
23:15 1026 30.3 855 25.25 -0.5 31.2 81 -3.4 25.9
23:20 1026 30.3 855 25.25 -0.2 31.7 79 -3.3 26
23:25 1026 30.3 855 25.25 -0.2 31.7 79 -3.4 26
23:30 1026 30.3 855 25.25 -0.3 31.5 79 -3.5 25.8
23:35 1026 30.3 855 25.25 -0.4 31.3 79 -3.6 25.6
23:40 1026 30.3 855 25.25 -0.3 31.4 78 -3.6 25.4
23:45 1026 30.3 855 25.25 -0.3 31.4 78 -3.7 25.3
23:50 1026 30.3 855 25.25 -0.4 31.3 79 -3.7 25.4
23:55 1026 30.3 855 25.25 -0.5 31.1 78 -3.9 25.1
24:00 1026 30.3 855 25.25 -0.6 30.9 78 -3.9 24.9